sensor_id;sensor_type;location;lat;lon;timestamp;P1;durP1;ratioP1;P2;durP2;ratioP2
7253;SDS011;4060;49.186;9.226;2023-06-19T00:00:15;5.88;;;5.47;;
7253;SDS011;4060;49.186;9.226;2023-06-19T00:02:46;6.32;;;5.85;;
7253;SDS011;4060;49.186;9.226;2023-06-19T00:05:16;6.32;;;5.82;;
7253;SDS011;4060;49.186;9.226;2023-06-19T00:07:45;6.10;;;5.60;;
7253;SDS011;4060;49.186;9.226;2023-06-19T00:10:14;5.97;;;5.55;;
7253;SDS011;4060;49.186;9.226;2023-06-19T00:12:44;6.18;;;5.78;;
7253;SDS011;4060;49.186;9.226;2023-06-19T00:15:13;5.78;;;5.38;;
7253;SDS011;4060;49.186;9.226;2023-06-19T00:17:43;5.95;;;5.45;;
7253;SDS011;4060;49.186;9.226;2023-06-19T00:20:13;6.10;;;5.60;;
7253;SDS011;4060;49.186;9.226;2023-06-19T00:22:44;6.82;;;6.22;;
7253;SDS011;4060;49.186;9.226;2023-06-19T00:25:18;6.18;;;5.68;;
7253;SDS011;4060;49.186;9.226;2023-06-19T00:27:51;6.15;;;5.57;;
7253;SDS011;4060;49.186;9.226;2023-06-19T00:30:20;6.13;;;5.65;;
7253;SDS011;4060;49.186;9.226;2023-06-19T00:32:49;5.70;;;5.20;;
7253;SDS011;4060;49.186;9.226;2023-06-19T00:35:20;6.22;;;5.72;;
7253;SDS011;4060;49.186;9.226;2023-06-19T00:37:50;6.20;;;5.70;;
7253;SDS011;4060;49.186;9.226;2023-06-19T00:40:26;5.80;;;5.30;;
7253;SDS011;4060;49.186;9.226;2023-06-19T00:42:58;6.75;;;6.10;;
7253;SDS011;4060;49.186;9.226;2023-06-19T00:45:27;5.57;;;5.18;;
7253;SDS011;4060;49.186;9.226;2023-06-19T00:47:56;6.28;;;5.78;;
7253;SDS011;4060;49.186;9.226;2023-06-19T00:50:30;5.97;;;5.47;;
7253;SDS011;4060;49.186;9.226;2023-06-19T00:52:59;6.25;;;5.75;;
7253;SDS011;4060;49.186;9.226;2023-06-19T00:55:30;6.13;;;5.57;;
7253;SDS011;4060;49.186;9.226;2023-06-19T00:58:02;5.70;;;5.30;;
7253;SDS011;4060;49.186;9.226;2023-06-19T01:00:31;6.68;;;5.85;;
7253;SDS011;4060;49.186;9.226;2023-06-19T01:03:01;6.35;;;5.85;;
7253;SDS011;4060;49.186;9.226;2023-06-19T01:05:32;6.32;;;5.82;;
7253;SDS011;4060;49.186;9.226;2023-06-19T01:08:03;6.38;;;5.70;;
7253;SDS011;4060;49.186;9.226;2023-06-19T01:10:39;6.75;;;6.05;;
7253;SDS011;4060;49.186;9.226;2023-06-19T01:13:12;6.43;;;5.95;;
7253;SDS011;4060;49.186;9.226;2023-06-19T01:15:45;6.20;;;5.70;;
7253;SDS011;4060;49.186;9.226;2023-06-19T01:18:15;6.40;;;5.90;;
7253;SDS011;4060;49.186;9.226;2023-06-19T01:20:47;6.05;;;5.55;;
7253;SDS011;4060;49.186;9.226;2023-06-19T01:23:19;5.97;;;5.57;;
7253;SDS011;4060;49.186;9.226;2023-06-19T01:25:48;6.30;;;5.85;;
7253;SDS011;4060;49.186;9.226;2023-06-19T01:28:23;6.35;;;5.85;;
7253;SDS011;4060;49.186;9.226;2023-06-19T01:30:52;6.20;;;5.70;;
7253;SDS011;4060;49.186;9.226;2023-06-19T01:33:26;6.38;;;5.80;;
7253;SDS011;4060;49.186;9.226;2023-06-19T01:35:57;6.60;;;6.05;;
7253;SDS011;4060;49.186;9.226;2023-06-19T01:38:30;7.05;;;6.45;;
7253;SDS011;4060;49.186;9.226;2023-06-19T01:41:00;6.40;;;5.80;;
7253;SDS011;4060;49.186;9.226;2023-06-19T01:43:30;6.72;;;6.13;;
7253;SDS011;4060;49.186;9.226;2023-06-19T01:46:00;7.20;;;6.60;;
7253;SDS011;4060;49.186;9.226;2023-06-19T01:48:30;7.18;;;6.47;;
7253;SDS011;4060;49.186;9.226;2023-06-19T01:50:59;6.80;;;6.28;;
7253;SDS011;4060;49.186;9.226;2023-06-19T01:53:32;6.57;;;6.00;;
7253;SDS011;4060;49.186;9.226;2023-06-19T01:56:01;6.25;;;5.82;;
7253;SDS011;4060;49.186;9.226;2023-06-19T01:58:30;5.78;;;5.28;;
7253;SDS011;4060;49.186;9.226;2023-06-19T02:01:00;5.90;;;5.50;;
7253;SDS011;4060;49.186;9.226;2023-06-19T02:03:29;6.05;;;5.50;;
7253;SDS011;4060;49.186;9.226;2023-06-19T02:05:58;6.00;;;5.50;;
7253;SDS011;4060;49.186;9.226;2023-06-19T02:08:28;5.40;;;4.90;;
7253;SDS011;4060;49.186;9.226;2023-06-19T02:10:59;5.78;;;5.28;;
7253;SDS011;4060;49.186;9.226;2023-06-19T02:13:28;5.57;;;5.03;;
7253;SDS011;4060;49.186;9.226;2023-06-19T02:15:58;6.20;;;4.97;;
7253;SDS011;4060;49.186;9.226;2023-06-19T02:18:27;5.20;;;4.75;;
7253;SDS011;4060;49.186;9.226;2023-06-19T02:20:56;4.32;;;3.95;;
7253;SDS011;4060;49.186;9.226;2023-06-19T02:23:26;4.38;;;3.78;;
7253;SDS011;4060;49.186;9.226;2023-06-19T02:25:55;4.47;;;4.07;;
7253;SDS011;4060;49.186;9.226;2023-06-19T02:28:26;4.57;;;3.75;;
7253;SDS011;4060;49.186;9.226;2023-06-19T02:30:55;3.90;;;3.60;;
7253;SDS011;4060;49.186;9.226;2023-06-19T02:33:24;3.92;;;3.58;;
7253;SDS011;4060;49.186;9.226;2023-06-19T02:35:54;6.65;;;3.20;;
7253;SDS011;4060;49.186;9.226;2023-06-19T02:38:25;3.70;;;3.30;;
7253;SDS011;4060;49.186;9.226;2023-06-19T02:40:55;3.50;;;3.30;;
7253;SDS011;4060;49.186;9.226;2023-06-19T02:43:29;3.80;;;3.40;;
7253;SDS011;4060;49.186;9.226;2023-06-19T02:45:59;3.33;;;3.13;;
7253;SDS011;4060;49.186;9.226;2023-06-19T02:48:28;3.28;;;3.08;;
7253;SDS011;4060;49.186;9.226;2023-06-19T02:50:58;4.68;;;3.28;;
7253;SDS011;4060;49.186;9.226;2023-06-19T02:53:27;3.30;;;2.95;;
7253;SDS011;4060;49.186;9.226;2023-06-19T02:55:56;2.67;;;2.47;;
7253;SDS011;4060;49.186;9.226;2023-06-19T02:58:25;2.80;;;2.60;;
7253;SDS011;4060;49.186;9.226;2023-06-19T03:00:57;3.00;;;2.75;;
7253;SDS011;4060;49.186;9.226;2023-06-19T03:03:26;3.00;;;2.58;;
7253;SDS011;4060;49.186;9.226;2023-06-19T03:05:56;2.95;;;2.75;;
7253;SDS011;4060;49.186;9.226;2023-06-19T03:08:26;2.63;;;2.47;;
7253;SDS011;4060;49.186;9.226;2023-06-19T03:10:55;3.03;;;2.65;;
7253;SDS011;4060;49.186;9.226;2023-06-19T03:13:25;2.60;;;2.25;;
7253;SDS011;4060;49.186;9.226;2023-06-19T03:15:58;2.78;;;2.58;;
7253;SDS011;4060;49.186;9.226;2023-06-19T03:18:28;2.70;;;2.50;;
7253;SDS011;4060;49.186;9.226;2023-06-19T03:20:58;2.85;;;2.50;;
7253;SDS011;4060;49.186;9.226;2023-06-19T03:23:27;2.53;;;2.33;;
7253;SDS011;4060;49.186;9.226;2023-06-19T03:25:57;2.70;;;2.35;;
7253;SDS011;4060;49.186;9.226;2023-06-19T03:28:26;2.65;;;2.45;;
7253;SDS011;4060;49.186;9.226;2023-06-19T03:30:58;2.67;;;2.30;;
7253;SDS011;4060;49.186;9.226;2023-06-19T03:33:28;2.42;;;2.20;;
7253;SDS011;4060;49.186;9.226;2023-06-19T03:35:57;2.00;;;1.90;;
7253;SDS011;4060;49.186;9.226;2023-06-19T03:38:26;2.30;;;2.10;;
7253;SDS011;4060;49.186;9.226;2023-06-19T03:40:55;1.98;;;1.88;;
7253;SDS011;4060;49.186;9.226;2023-06-19T03:43:24;2.00;;;1.90;;
7253;SDS011;4060;49.186;9.226;2023-06-19T03:45:54;2.40;;;2.20;;
7253;SDS011;4060;49.186;9.226;2023-06-19T03:48:26;2.53;;;1.85;;
7253;SDS011;4060;49.186;9.226;2023-06-19T03:50:56;2.75;;;2.00;;
7253;SDS011;4060;49.186;9.226;2023-06-19T03:53:26;2.05;;;1.80;;
7253;SDS011;4060;49.186;9.226;2023-06-19T03:55:56;2.13;;;1.90;;
7253;SDS011;4060;49.186;9.226;2023-06-19T03:58:25;2.42;;;1.90;;
7253;SDS011;4060;49.186;9.226;2023-06-19T04:00:55;2.10;;;2.00;;
7253;SDS011;4060;49.186;9.226;2023-06-19T04:03:26;1.60;;;1.50;;
7253;SDS011;4060;49.186;9.226;2023-06-19T04:05:55;2.22;;;1.73;;
7253;SDS011;4060;49.186;9.226;2023-06-19T04:08:25;1.85;;;1.75;;
7253;SDS011;4060;49.186;9.226;2023-06-19T04:10:55;1.80;;;1.70;;
7253;SDS011;4060;49.186;9.226;2023-06-19T04:13:24;2.15;;;1.63;;
7253;SDS011;4060;49.186;9.226;2023-06-19T04:15:53;1.70;;;1.60;;
7253;SDS011;4060;49.186;9.226;2023-06-19T04:18:24;2.90;;;2.30;;
7253;SDS011;4060;49.186;9.226;2023-06-19T04:20:54;1.73;;;1.63;;
7253;SDS011;4060;49.186;9.226;2023-06-19T04:23:24;1.98;;;1.88;;
7253;SDS011;4060;49.186;9.226;2023-06-19T04:25:53;2.28;;;2.08;;
7253;SDS011;4060;49.186;9.226;2023-06-19T04:28:22;1.80;;;1.70;;
7253;SDS011;4060;49.186;9.226;2023-06-19T04:30:52;2.28;;;2.13;;
7253;SDS011;4060;49.186;9.226;2023-06-19T04:33:28;2.13;;;1.92;;
7253;SDS011;4060;49.186;9.226;2023-06-19T04:35:58;1.70;;;1.60;;
7253;SDS011;4060;49.186;9.226;2023-06-19T04:38:28;1.88;;;1.50;;
7253;SDS011;4060;49.186;9.226;2023-06-19T04:40:57;1.83;;;1.73;;
7253;SDS011;4060;49.186;9.226;2023-06-19T04:43:27;1.85;;;1.75;;
7253;SDS011;4060;49.186;9.226;2023-06-19T04:45:56;1.58;;;1.48;;
7253;SDS011;4060;49.186;9.226;2023-06-19T04:48:25;2.20;;;1.67;;
7253;SDS011;4060;49.186;9.226;2023-06-19T04:50:57;1.60;;;1.50;;
7253;SDS011;4060;49.186;9.226;2023-06-19T04:53:28;1.95;;;1.85;;
7253;SDS011;4060;49.186;9.226;2023-06-19T04:55:57;2.22;;;2.08;;
7253;SDS011;4060;49.186;9.226;2023-06-19T04:58:26;1.85;;;1.73;;
7253;SDS011;4060;49.186;9.226;2023-06-19T05:00:56;1.88;;;1.70;;
7253;SDS011;4060;49.186;9.226;2023-06-19T05:03:25;1.92;;;1.77;;
7253;SDS011;4060;49.186;9.226;2023-06-19T05:05:57;2.45;;;1.83;;
7253;SDS011;4060;49.186;9.226;2023-06-19T05:08:26;2.22;;;1.67;;
7253;SDS011;4060;49.186;9.226;2023-06-19T05:10:56;1.95;;;1.80;;
7253;SDS011;4060;49.186;9.226;2023-06-19T05:13:25;2.13;;;1.98;;
7253;SDS011;4060;49.186;9.226;2023-06-19T05:15:55;2.22;;;1.73;;
7253;SDS011;4060;49.186;9.226;2023-06-19T05:18:24;2.38;;;1.70;;
7253;SDS011;4060;49.186;9.226;2023-06-19T05:20:55;2.45;;;2.25;;
7253;SDS011;4060;49.186;9.226;2023-06-19T05:23:24;2.10;;;2.00;;
7253;SDS011;4060;49.186;9.226;2023-06-19T05:25:53;1.50;;;1.40;;
7253;SDS011;4060;49.186;9.226;2023-06-19T05:28:22;2.55;;;2.10;;
7253;SDS011;4060;49.186;9.226;2023-06-19T05:30:52;1.75;;;1.58;;
7253;SDS011;4060;49.186;9.226;2023-06-19T05:33:22;2.35;;;1.73;;
7253;SDS011;4060;49.186;9.226;2023-06-19T05:35:53;1.95;;;1.85;;
7253;SDS011;4060;49.186;9.226;2023-06-19T05:38:24;2.10;;;1.90;;
7253;SDS011;4060;49.186;9.226;2023-06-19T05:40:56;2.05;;;1.95;;
7253;SDS011;4060;49.186;9.226;2023-06-19T05:43:26;3.13;;;2.20;;
7253;SDS011;4060;49.186;9.226;2023-06-19T05:45:55;2.38;;;2.17;;
7253;SDS011;4060;49.186;9.226;2023-06-19T05:48:25;2.13;;;2.03;;
7253;SDS011;4060;49.186;9.226;2023-06-19T05:50:56;2.25;;;2.03;;
7253;SDS011;4060;49.186;9.226;2023-06-19T05:53:26;3.13;;;2.20;;
7253;SDS011;4060;49.186;9.226;2023-06-19T05:56:01;2.40;;;2.22;;
7253;SDS011;4060;49.186;9.226;2023-06-19T05:58:31;1.92;;;1.77;;
7253;SDS011;4060;49.186;9.226;2023-06-19T06:01:01;2.00;;;1.90;;
7253;SDS011;4060;49.186;9.226;2023-06-19T06:03:31;1.90;;;1.80;;
7253;SDS011;4060;49.186;9.226;2023-06-19T06:06:04;2.22;;;2.03;;
7253;SDS011;4060;49.186;9.226;2023-06-19T06:08:33;2.78;;;2.42;;
7253;SDS011;4060;49.186;9.226;2023-06-19T06:11:02;2.42;;;2.10;;
7253;SDS011;4060;49.186;9.226;2023-06-19T06:13:32;2.30;;;2.10;;
7253;SDS011;4060;49.186;9.226;2023-06-19T06:16:02;3.35;;;2.22;;
7253;SDS011;4060;49.186;9.226;2023-06-19T06:18:31;2.00;;;1.90;;
7253;SDS011;4060;49.186;9.226;2023-06-19T06:21:01;2.40;;;2.15;;
7253;SDS011;4060;49.186;9.226;2023-06-19T06:23:33;2.13;;;1.98;;
7253;SDS011;4060;49.186;9.226;2023-06-19T06:26:03;2.75;;;2.55;;
7253;SDS011;4060;49.186;9.226;2023-06-19T06:28:33;2.30;;;2.10;;
7253;SDS011;4060;49.186;9.226;2023-06-19T06:31:04;2.70;;;2.50;;
7253;SDS011;4060;49.186;9.226;2023-06-19T06:33:34;2.22;;;2.03;;
7253;SDS011;4060;49.186;9.226;2023-06-19T06:36:05;2.50;;;2.25;;
7253;SDS011;4060;49.186;9.226;2023-06-19T06:38:34;2.55;;;2.35;;
7253;SDS011;4060;49.186;9.226;2023-06-19T06:41:04;2.47;;;2.28;;
7253;SDS011;4060;49.186;9.226;2023-06-19T06:43:34;2.65;;;2.45;;
7253;SDS011;4060;49.186;9.226;2023-06-19T06:46:04;2.58;;;2.38;;
7253;SDS011;4060;49.186;9.226;2023-06-19T06:48:34;2.95;;;2.03;;
7253;SDS011;4060;49.186;9.226;2023-06-19T06:51:05;3.03;;;2.72;;
7253;SDS011;4060;49.186;9.226;2023-06-19T06:53:36;2.80;;;2.60;;
7253;SDS011;4060;49.186;9.226;2023-06-19T06:56:06;2.58;;;2.00;;
7253;SDS011;4060;49.186;9.226;2023-06-19T06:58:36;3.65;;;2.63;;
7253;SDS011;4060;49.186;9.226;2023-06-19T07:01:07;2.75;;;2.55;;
7253;SDS011;4060;49.186;9.226;2023-06-19T07:03:37;2.72;;;2.53;;
7253;SDS011;4060;49.186;9.226;2023-06-19T07:06:09;2.75;;;2.38;;
7253;SDS011;4060;49.186;9.226;2023-06-19T07:08:38;2.58;;;2.38;;
7253;SDS011;4060;49.186;9.226;2023-06-19T07:11:08;2.72;;;2.50;;
7253;SDS011;4060;49.186;9.226;2023-06-19T07:13:37;2.60;;;2.40;;
7253;SDS011;4060;49.186;9.226;2023-06-19T07:16:07;2.60;;;2.30;;
7253;SDS011;4060;49.186;9.226;2023-06-19T07:18:39;2.88;;;2.60;;
7253;SDS011;4060;49.186;9.226;2023-06-19T07:21:11;2.45;;;2.35;;
7253;SDS011;4060;49.186;9.226;2023-06-19T07:23:42;5.97;;;2.90;;
7253;SDS011;4060;49.186;9.226;2023-06-19T07:26:13;2.50;;;2.30;;
7253;SDS011;4060;49.186;9.226;2023-06-19T07:28:43;2.67;;;2.40;;
7253;SDS011;4060;49.186;9.226;2023-06-19T07:31:12;2.53;;;2.33;;
7253;SDS011;4060;49.186;9.226;2023-06-19T07:33:42;2.50;;;2.30;;
7253;SDS011;4060;49.186;9.226;2023-06-19T07:36:13;2.47;;;2.28;;
7253;SDS011;4060;49.186;9.226;2023-06-19T07:38:42;2.50;;;2.30;;
7253;SDS011;4060;49.186;9.226;2023-06-19T07:41:13;2.85;;;2.50;;
7253;SDS011;4060;49.186;9.226;2023-06-19T07:43:42;2.30;;;2.10;;
7253;SDS011;4060;49.186;9.226;2023-06-19T07:46:13;2.53;;;2.33;;
7253;SDS011;4060;49.186;9.226;2023-06-19T07:48:42;2.60;;;2.28;;
7253;SDS011;4060;49.186;9.226;2023-06-19T07:51:13;2.35;;;2.25;;
7253;SDS011;4060;49.186;9.226;2023-06-19T07:53:43;2.15;;;2.05;;
7253;SDS011;4060;49.186;9.226;2023-06-19T07:56:12;2.67;;;2.47;;
7253;SDS011;4060;49.186;9.226;2023-06-19T07:58:42;2.65;;;2.45;;
7253;SDS011;4060;49.186;9.226;2023-06-19T08:01:11;2.53;;;2.33;;
7253;SDS011;4060;49.186;9.226;2023-06-19T08:03:41;2.80;;;2.60;;
7253;SDS011;4060;49.186;9.226;2023-06-19T08:06:10;2.92;;;2.67;;
7253;SDS011;4060;49.186;9.226;2023-06-19T08:08:42;3.42;;;2.72;;
7253;SDS011;4060;49.186;9.226;2023-06-19T08:11:13;8.73;;;2.70;;
7253;SDS011;4060;49.186;9.226;2023-06-19T08:13:43;2.78;;;2.58;;
7253;SDS011;4060;49.186;9.226;2023-06-19T08:16:12;2.63;;;2.40;;
7253;SDS011;4060;49.186;9.226;2023-06-19T08:18:43;2.78;;;2.53;;
7253;SDS011;4060;49.186;9.226;2023-06-19T08:21:14;2.70;;;2.50;;
7253;SDS011;4060;49.186;9.226;2023-06-19T08:23:44;2.78;;;2.58;;
7253;SDS011;4060;49.186;9.226;2023-06-19T08:26:14;2.72;;;2.53;;
7253;SDS011;4060;49.186;9.226;2023-06-19T08:28:44;2.83;;;2.63;;
7253;SDS011;4060;49.186;9.226;2023-06-19T08:31:14;3.38;;;3.10;;
7253;SDS011;4060;49.186;9.226;2023-06-19T08:33:43;3.10;;;2.90;;
7253;SDS011;4060;49.186;9.226;2023-06-19T08:36:18;3.63;;;3.28;;
7253;SDS011;4060;49.186;9.226;2023-06-19T08:38:47;3.47;;;3.17;;
7253;SDS011;4060;49.186;9.226;2023-06-19T08:41:19;3.35;;;3.05;;
7253;SDS011;4060;49.186;9.226;2023-06-19T08:43:49;3.10;;;2.90;;
7253;SDS011;4060;49.186;9.226;2023-06-19T08:46:19;3.00;;;2.80;;
7253;SDS011;4060;49.186;9.226;2023-06-19T08:48:48;2.90;;;2.70;;
7253;SDS011;4060;49.186;9.226;2023-06-19T08:51:20;4.10;;;3.20;;
7253;SDS011;4060;49.186;9.226;2023-06-19T08:53:54;3.22;;;3.03;;
7253;SDS011;4060;49.186;9.226;2023-06-19T08:56:30;3.55;;;3.25;;
7253;SDS011;4060;49.186;9.226;2023-06-19T08:59:11;3.10;;;2.90;;
7253;SDS011;4060;49.186;9.226;2023-06-19T09:01:46;2.97;;;2.78;;
7253;SDS011;4060;49.186;9.226;2023-06-19T09:04:18;3.15;;;2.95;;
7253;SDS011;4060;49.186;9.226;2023-06-19T09:06:51;3.10;;;2.90;;
7253;SDS011;4060;49.186;9.226;2023-06-19T09:09:22;3.22;;;2.92;;
7253;SDS011;4060;49.186;9.226;2023-06-19T09:12:00;3.10;;;2.75;;
7253;SDS011;4060;49.186;9.226;2023-06-19T09:14:33;2.78;;;2.58;;
7253;SDS011;4060;49.186;9.226;2023-06-19T09:17:03;3.17;;;3.00;;
7253;SDS011;4060;49.186;9.226;2023-06-19T09:19:33;2.90;;;2.70;;
7253;SDS011;4060;49.186;9.226;2023-06-19T09:22:06;3.08;;;2.88;;
7253;SDS011;4060;49.186;9.226;2023-06-19T09:24:35;3.08;;;2.80;;
7253;SDS011;4060;49.186;9.226;2023-06-19T09:27:07;4.00;;;2.92;;
7253;SDS011;4060;49.186;9.226;2023-06-19T09:29:39;2.92;;;2.72;;
7253;SDS011;4060;49.186;9.226;2023-06-19T09:32:17;3.00;;;2.80;;
7253;SDS011;4060;49.186;9.226;2023-06-19T09:34:48;3.13;;;2.83;;
7253;SDS011;4060;49.186;9.226;2023-06-19T09:37:21;3.00;;;2.80;;
7253;SDS011;4060;49.186;9.226;2023-06-19T09:39:53;3.17;;;2.85;;
7253;SDS011;4060;49.186;9.226;2023-06-19T09:42:30;3.22;;;3.03;;
7253;SDS011;4060;49.186;9.226;2023-06-19T09:45:02;3.65;;;3.35;;
7253;SDS011;4060;49.186;9.226;2023-06-19T09:47:35;3.38;;;3.08;;
7253;SDS011;4060;49.186;9.226;2023-06-19T09:50:06;3.55;;;3.33;;
7253;SDS011;4060;49.186;9.226;2023-06-19T09:52:38;3.42;;;3.13;;
7253;SDS011;4060;49.186;9.226;2023-06-19T09:55:09;3.17;;;2.97;;
7253;SDS011;4060;49.186;9.226;2023-06-19T09:57:41;3.10;;;2.90;;
7253;SDS011;4060;49.186;9.226;2023-06-19T10:00:11;3.40;;;3.20;;
7253;SDS011;4060;49.186;9.226;2023-06-19T10:02:43;3.45;;;3.15;;
7253;SDS011;4060;49.186;9.226;2023-06-19T10:05:14;3.40;;;3.10;;
7253;SDS011;4060;49.186;9.226;2023-06-19T10:07:46;4.00;;;3.65;;
7253;SDS011;4060;49.186;9.226;2023-06-19T10:10:23;3.22;;;3.03;;
7253;SDS011;4060;49.186;9.226;2023-06-19T10:12:54;3.50;;;3.22;;
7253;SDS011;4060;49.186;9.226;2023-06-19T10:15:24;3.53;;;3.33;;
7253;SDS011;4060;49.186;9.226;2023-06-19T10:18:00;3.85;;;3.50;;
7253;SDS011;4060;49.186;9.226;2023-06-19T10:20:31;3.75;;;3.45;;
7253;SDS011;4060;49.186;9.226;2023-06-19T10:23:06;4.13;;;3.72;;
7253;SDS011;4060;49.186;9.226;2023-06-19T10:25:38;3.67;;;3.47;;
7253;SDS011;4060;49.186;9.226;2023-06-19T10:28:17;3.90;;;3.60;;
7253;SDS011;4060;49.186;9.226;2023-06-19T10:30:55;3.97;;;3.65;;
7253;SDS011;4060;49.186;9.226;2023-06-19T10:33:25;3.70;;;3.42;;
7253;SDS011;4060;49.186;9.226;2023-06-19T10:35:56;3.58;;;3.05;;
7253;SDS011;4060;49.186;9.226;2023-06-19T10:38:29;3.60;;;3.30;;
7253;SDS011;4060;49.186;9.226;2023-06-19T10:40:58;4.05;;;3.70;;
7253;SDS011;4060;49.186;9.226;2023-06-19T10:43:28;4.65;;;3.85;;
7253;SDS011;4060;49.186;9.226;2023-06-19T10:45:58;3.80;;;3.60;;
7253;SDS011;4060;49.186;9.226;2023-06-19T10:48:32;4.07;;;3.78;;
7253;SDS011;4060;49.186;9.226;2023-06-19T10:51:01;4.25;;;3.95;;
7253;SDS011;4060;49.186;9.226;2023-06-19T10:53:33;3.70;;;3.40;;
7253;SDS011;4060;49.186;9.226;2023-06-19T10:56:02;3.55;;;3.30;;
7253;SDS011;4060;49.186;9.226;2023-06-19T10:58:32;3.90;;;3.60;;
7253;SDS011;4060;49.186;9.226;2023-06-19T11:01:02;4.18;;;3.88;;
7253;SDS011;4060;49.186;9.226;2023-06-19T11:03:32;4.18;;;3.83;;
7253;SDS011;4060;49.186;9.226;2023-06-19T11:06:01;4.47;;;4.15;;
7253;SDS011;4060;49.186;9.226;2023-06-19T11:08:31;4.35;;;3.95;;
7253;SDS011;4060;49.186;9.226;2023-06-19T11:11:02;4.13;;;3.83;;
7253;SDS011;4060;49.186;9.226;2023-06-19T11:13:32;4.88;;;4.50;;
7253;SDS011;4060;49.186;9.226;2023-06-19T11:16:03;4.57;;;4.18;;
7253;SDS011;4060;49.186;9.226;2023-06-19T11:18:32;4.22;;;3.92;;
7253;SDS011;4060;49.186;9.226;2023-06-19T11:21:02;4.43;;;4.13;;
7253;SDS011;4060;49.186;9.226;2023-06-19T11:23:33;3.65;;;3.45;;
7253;SDS011;4060;49.186;9.226;2023-06-19T11:26:03;3.90;;;3.70;;
7253;SDS011;4060;49.186;9.226;2023-06-19T11:28:37;4.05;;;3.75;;
7253;SDS011;4060;49.186;9.226;2023-06-19T11:31:08;3.92;;;3.70;;
7253;SDS011;4060;49.186;9.226;2023-06-19T11:33:37;3.88;;;3.58;;
7253;SDS011;4060;49.186;9.226;2023-06-19T11:36:07;4.18;;;3.88;;
7253;SDS011;4060;49.186;9.226;2023-06-19T11:38:39;3.88;;;3.63;;
7253;SDS011;4060;49.186;9.226;2023-06-19T11:41:13;4.05;;;3.80;;
7253;SDS011;4060;49.186;9.226;2023-06-19T11:43:59;4.20;;;3.90;;
7253;SDS011;4060;49.186;9.226;2023-06-19T11:46:29;4.15;;;3.85;;
7253;SDS011;4060;49.186;9.226;2023-06-19T11:49:12;4.28;;;3.97;;
7253;SDS011;4060;49.186;9.226;2023-06-19T11:51:43;3.92;;;3.67;;
7253;SDS011;4060;49.186;9.226;2023-06-19T11:54:14;4.07;;;3.78;;
7253;SDS011;4060;49.186;9.226;2023-06-19T11:56:44;3.58;;;3.38;;
7253;SDS011;4060;49.186;9.226;2023-06-19T11:59:13;4.13;;;3.83;;
7253;SDS011;4060;49.186;9.226;2023-06-19T12:01:43;3.92;;;3.63;;
7253;SDS011;4060;49.186;9.226;2023-06-19T12:04:12;3.65;;;3.40;;
7253;SDS011;4060;49.186;9.226;2023-06-19T12:06:42;3.95;;;3.72;;
7253;SDS011;4060;49.186;9.226;2023-06-19T12:09:12;4.00;;;3.70;;
7253;SDS011;4060;49.186;9.226;2023-06-19T12:11:44;4.80;;;4.38;;
7253;SDS011;4060;49.186;9.226;2023-06-19T12:14:13;3.70;;;3.40;;
7253;SDS011;4060;49.186;9.226;2023-06-19T12:16:45;3.55;;;3.35;;
7253;SDS011;4060;49.186;9.226;2023-06-19T12:19:15;4.25;;;3.85;;
7253;SDS011;4060;49.186;9.226;2023-06-19T12:21:44;4.10;;;3.80;;
7253;SDS011;4060;49.186;9.226;2023-06-19T12:24:16;3.90;;;3.65;;
7253;SDS011;4060;49.186;9.226;2023-06-19T12:26:45;3.90;;;3.60;;
7253;SDS011;4060;49.186;9.226;2023-06-19T12:29:15;3.80;;;3.53;;
7253;SDS011;4060;49.186;9.226;2023-06-19T12:31:46;3.47;;;3.28;;
7253;SDS011;4060;49.186;9.226;2023-06-19T12:34:17;4.10;;;3.78;;
7253;SDS011;4060;49.186;9.226;2023-06-19T12:36:47;4.22;;;3.83;;
7253;SDS011;4060;49.186;9.226;2023-06-19T12:39:18;3.67;;;3.45;;
7253;SDS011;4060;49.186;9.226;2023-06-19T12:41:47;3.95;;;3.75;;
7253;SDS011;4060;49.186;9.226;2023-06-19T12:44:17;4.10;;;3.65;;
7253;SDS011;4060;49.186;9.226;2023-06-19T12:46:46;4.45;;;4.15;;
7253;SDS011;4060;49.186;9.226;2023-06-19T12:49:16;3.67;;;3.47;;
7253;SDS011;4060;49.186;9.226;2023-06-19T12:51:46;3.72;;;3.53;;
7253;SDS011;4060;49.186;9.226;2023-06-19T12:54:20;4.03;;;3.72;;
7253;SDS011;4060;49.186;9.226;2023-06-19T12:56:50;4.38;;;3.97;;
7253;SDS011;4060;49.186;9.226;2023-06-19T12:59:19;4.68;;;3.97;;
7253;SDS011;4060;49.186;9.226;2023-06-19T13:01:49;4.32;;;3.85;;
7253;SDS011;4060;49.186;9.226;2023-06-19T13:04:18;3.97;;;3.70;;
7253;SDS011;4060;49.186;9.226;2023-06-19T13:06:48;4.20;;;3.90;;
7253;SDS011;4060;49.186;9.226;2023-06-19T13:09:19;4.50;;;4.20;;
7253;SDS011;4060;49.186;9.226;2023-06-19T13:11:50;4.43;;;4.03;;
7253;SDS011;4060;49.186;9.226;2023-06-19T13:14:19;4.85;;;4.45;;
7253;SDS011;4060;49.186;9.226;2023-06-19T13:16:49;4.78;;;4.47;;
7253;SDS011;4060;49.186;9.226;2023-06-19T13:19:19;4.28;;;3.97;;
7253;SDS011;4060;49.186;9.226;2023-06-19T13:21:48;4.50;;;3.65;;
7253;SDS011;4060;49.186;9.226;2023-06-19T13:24:20;4.28;;;3.97;;
7253;SDS011;4060;49.186;9.226;2023-06-19T13:26:49;4.32;;;4.03;;
7253;SDS011;4060;49.186;9.226;2023-06-19T13:29:19;4.28;;;3.97;;
7253;SDS011;4060;49.186;9.226;2023-06-19T13:31:49;4.10;;;3.80;;
7253;SDS011;4060;49.186;9.226;2023-06-19T13:34:18;4.43;;;4.03;;
7253;SDS011;4060;49.186;9.226;2023-06-19T13:36:48;4.07;;;3.78;;
7253;SDS011;4060;49.186;9.226;2023-06-19T13:39:20;4.20;;;3.90;;
7253;SDS011;4060;49.186;9.226;2023-06-19T13:41:50;4.53;;;4.22;;
7253;SDS011;4060;49.186;9.226;2023-06-19T13:44:19;3.92;;;3.72;;
7253;SDS011;4060;49.186;9.226;2023-06-19T13:46:49;3.90;;;3.60;;
7253;SDS011;4060;49.186;9.226;2023-06-19T13:49:20;4.22;;;3.92;;
7253;SDS011;4060;49.186;9.226;2023-06-19T13:51:49;4.13;;;3.83;;
7253;SDS011;4060;49.186;9.226;2023-06-19T13:54:21;4.40;;;4.10;;
7253;SDS011;4060;49.186;9.226;2023-06-19T13:56:51;4.65;;;4.30;;
7253;SDS011;4060;49.186;9.226;2023-06-19T13:59:20;4.60;;;4.20;;
7253;SDS011;4060;49.186;9.226;2023-06-19T14:01:50;4.50;;;4.20;;
7253;SDS011;4060;49.186;9.226;2023-06-19T14:04:20;4.32;;;4.03;;
7253;SDS011;4060;49.186;9.226;2023-06-19T14:06:49;4.20;;;3.90;;
7253;SDS011;4060;49.186;9.226;2023-06-19T14:09:21;4.63;;;4.22;;
7253;SDS011;4060;49.186;9.226;2023-06-19T14:11:50;4.38;;;3.97;;
7253;SDS011;4060;49.186;9.226;2023-06-19T14:14:20;4.40;;;4.15;;
7253;SDS011;4060;49.186;9.226;2023-06-19T14:16:49;4.63;;;4.32;;
7253;SDS011;4060;49.186;9.226;2023-06-19T14:19:18;4.57;;;4.25;;
7253;SDS011;4060;49.186;9.226;2023-06-19T14:21:49;4.50;;;4.20;;
7253;SDS011;4060;49.186;9.226;2023-06-19T14:24:20;4.60;;;4.30;;
7253;SDS011;4060;49.186;9.226;2023-06-19T14:26:50;4.28;;;4.05;;
7253;SDS011;4060;49.186;9.226;2023-06-19T14:29:19;4.70;;;4.38;;
7253;SDS011;4060;49.186;9.226;2023-06-19T14:31:50;4.63;;;4.32;;
7253;SDS011;4060;49.186;9.226;2023-06-19T14:34:20;4.50;;;4.20;;
7253;SDS011;4060;49.186;9.226;2023-06-19T14:36:50;4.50;;;4.20;;
7253;SDS011;4060;49.186;9.226;2023-06-19T14:39:21;4.32;;;4.03;;
7253;SDS011;4060;49.186;9.226;2023-06-19T14:41:51;4.32;;;4.03;;
7253;SDS011;4060;49.186;9.226;2023-06-19T14:44:22;4.78;;;4.43;;
7253;SDS011;4060;49.186;9.226;2023-06-19T14:46:51;5.15;;;4.78;;
7253;SDS011;4060;49.186;9.226;2023-06-19T14:49:21;4.63;;;4.22;;
7253;SDS011;4060;49.186;9.226;2023-06-19T14:51:51;4.45;;;4.15;;
7253;SDS011;4060;49.186;9.226;2023-06-19T14:54:24;5.35;;;5.03;;
7253;SDS011;4060;49.186;9.226;2023-06-19T14:56:53;4.45;;;4.10;;
7253;SDS011;4060;49.186;9.226;2023-06-19T14:59:23;4.00;;;3.78;;
7253;SDS011;4060;49.186;9.226;2023-06-19T15:01:53;4.65;;;4.25;;
7253;SDS011;4060;49.186;9.226;2023-06-19T15:04:22;4.93;;;4.53;;
7253;SDS011;4060;49.186;9.226;2023-06-19T15:06:51;4.93;;;4.43;;
7253;SDS011;4060;49.186;9.226;2023-06-19T15:09:21;4.25;;;3.83;;
7253;SDS011;4060;49.186;9.226;2023-06-19T15:11:52;4.85;;;4.43;;
7253;SDS011;4060;49.186;9.226;2023-06-19T15:14:22;4.70;;;4.40;;
7253;SDS011;4060;49.186;9.226;2023-06-19T15:16:51;4.30;;;4.10;;
7253;SDS011;4060;49.186;9.226;2023-06-19T15:19:21;3.90;;;3.70;;
7253;SDS011;4060;49.186;9.226;2023-06-19T15:21:51;4.35;;;4.05;;
7253;SDS011;4060;49.186;9.226;2023-06-19T15:24:20;4.50;;;4.20;;
7253;SDS011;4060;49.186;9.226;2023-06-19T15:26:50;4.00;;;3.70;;
7253;SDS011;4060;49.186;9.226;2023-06-19T15:29:23;4.88;;;4.47;;
7253;SDS011;4060;49.186;9.226;2023-06-19T15:31:52;4.60;;;4.20;;
7253;SDS011;4060;49.186;9.226;2023-06-19T15:34:21;4.75;;;4.45;;